Time;durP1;ratioP1;P1;durP2;ratioP2;P2;SDS_P1;SDS_P2;PMS_P1;PMS_P2;Temp;Humidity;BMP_temperature;BMP_pressure;BME280_temperature;BME280_humidity;BME280_pressure;Samples;Min_cycle;Max_cycle;Signal;HPM_P1;HPM_P2
2022/04/23 00:00:00;;;;;;;6.70;4.67;;;;;;;;;;5111142;28;20450;-71
2022/04/23 00:02:27;;;;;;;5.90;4.53;;;;;;;;;;5110523;28;20081;-71
2022/04/23 00:04:54;;;;;;;7.40;4.23;;;;;;;;;;5111412;28;20027;-72
2022/04/23 00:07:21;;;;;;;7.67;5.00;;;;;;;;;;5116251;28;20155;-72
2022/04/23 00:09:48;;;;;;;9.83;5.30;;;;;;;;;;5115302;28;20032;-71
2022/04/23 00:12:14;;;;;;;9.33;5.13;;;;;;;;;;5116131;28;20043;-69
2022/04/23 00:14:43;;;;;;;11.93;6.40;;;;;;;;;;5115983;28;20106;-69
2022/04/23 00:17:10;;;;;;;11.80;6.73;;;;;;;;;;5114616;28;20058;-70
2022/04/23 00:19:37;;;;;;;12.37;6.13;;;;;;;;;;5110039;28;20028;-70
2022/04/23 00:22:04;;;;;;;10.70;6.40;;;;;;;;;;5110485;28;20460;-70
2022/04/23 00:24:31;;;;;;;12.53;6.60;;;;;;;;;;5110573;28;20026;-70
2022/04/23 00:26:57;;;;;;;12.33;6.33;;;;;;;;;;5110095;28;20023;-70
2022/04/23 00:29:24;;;;;;;8.73;6.20;;;;;;;;;;5115552;28;20094;-69
2022/04/23 00:31:51;;;;;;;10.70;6.83;;;;;;;;;;5115725;28;20378;-69
2022/04/23 00:34:17;;;;;;;13.57;6.30;;;;;;;;;;5115334;28;20110;-72
2022/04/23 00:36:44;;;;;;;12.43;5.63;;;;;;;;;;5115435;28;20027;-70
2022/04/23 00:39:11;;;;;;;9.00;5.60;;;;;;;;;;5113491;28;20067;-69
2022/04/23 00:41:46;;;;;;;11.70;5.97;;;;;;;;;;5110017;28;20024;-65
2022/04/23 00:44:12;;;;;;;;;;;;;;;;;;5090278;28;20209;-70
2022/04/23 00:46:39;;;;;;;13.57;6.93;;;;;;;;;;5095195;28;20259;-71
2022/04/23 00:49:08;;;;;;;9.53;5.80;;;;;;;;;;5110124;28;20027;-74
2022/04/23 00:51:35;;;;;;;11.33;5.47;;;;;;;;;;5114670;28;20027;-71
2022/04/23 00:54:10;;;;;;;10.00;5.83;;;;;;;;;;5114778;28;20063;-76
2022/04/23 00:56:38;;;;;;;11.57;5.60;;;;;;;;;;5115136;28;20027;-73
2022/04/23 00:59:09;;;;;;;11.47;5.77;;;;;;;;;;5115041;28;20116;-72
2022/04/23 01:01:36;;;;;;;10.60;6.83;;;;;;;;;;5114128;28;20015;-72
2022/04/23 01:04:05;;;;;;;11.63;5.13;;;;;;;;;;5109077;28;20038;-74
2022/04/23 01:06:35;;;;;;;12.57;5.63;;;;;;;;;;5108785;28;20020;-70
2022/04/23 01:09:03;;;;;;;10.53;5.40;;;;;;;;;;5109538;28;20466;-70
2022/04/23 01:11:30;;;;;;;8.40;5.43;;;;;;;;;;5109484;28;20020;-66
2022/04/23 01:13:57;;;;;;;13.87;4.90;;;;;;;;;;5114442;28;20026;-69
2022/04/23 01:16:23;;;;;;;8.97;5.20;;;;;;;;;;5114654;28;20028;-68
2022/04/23 01:18:50;;;;;;;9.33;5.40;;;;;;;;;;5114605;28;20185;-71
2022/04/23 01:21:17;;;;;;;9.03;4.77;;;;;;;;;;5114569;28;20028;-72
2022/04/23 01:23:45;;;;;;;11.80;5.50;;;;;;;;;;5114640;28;20549;-69
2022/04/23 01:26:14;;;;;;;14.40;6.67;;;;;;;;;;5109326;28;20093;-70
2022/04/23 01:28:41;;;;;;;13.30;7.43;;;;;;;;;;5109027;28;20023;-69
2022/04/23 01:31:07;;;;;;;10.53;6.47;;;;;;;;;;5108813;28;20034;-71
2022/04/23 01:33:34;;;;;;;8.13;6.57;;;;;;;;;;5109191;28;20636;-70
2022/04/23 01:36:02;;;;;;;17.27;6.70;;;;;;;;;;5113745;28;20094;-69
2022/04/23 01:38:29;;;;;;;10.43;6.50;;;;;;;;;;5114102;28;20023;-68
2022/04/23 01:40:56;;;;;;;9.97;6.60;;;;;;;;;;5113971;28;20028;-70
2022/04/23 01:43:26;;;;;;;9.90;6.77;;;;;;;;;;5114098;28;20570;-68
2022/04/23 01:46:00;;;;;;;9.43;6.63;;;;;;;;;;5113873;28;20466;-74
2022/04/23 01:48:27;;;;;;;14.43;6.43;;;;;;;;;;5109212;28;20023;-71
2022/04/23 01:50:55;;;;;;;11.50;6.83;;;;;;;;;;5108366;28;20084;-75
2022/04/23 01:53:26;;;;;;;9.80;6.60;;;;;;;;;;5108541;28;20020;-70
2022/04/23 01:55:53;;;;;;;11.20;6.33;;;;;;;;;;5108796;28;20031;-70
2022/04/23 01:58:21;;;;;;;9.10;6.67;;;;;;;;;;5113175;28;20084;-70
2022/04/23 02:00:48;;;;;;;11.37;5.93;;;;;;;;;;5114025;28;20046;-72
2022/04/23 02:03:15;;;;;;;12.47;7.00;;;;;;;;;;5113494;28;20032;-68
2022/04/23 02:05:41;;;;;;;10.53;5.60;;;;;;;;;;5095067;28;20359;-71
2022/04/23 02:08:09;;;;;;;9.70;5.97;;;;;;;;;;5113402;28;20118;-72
2022/04/23 02:10:35;;;;;;;8.93;6.03;;;;;;;;;;5108904;28;20028;-68
2022/04/23 02:13:02;;;;;;;8.87;5.13;;;;;;;;;;5108185;28;20051;-69
2022/04/23 02:15:29;;;;;;;11.03;6.10;;;;;;;;;;5108427;28;20024;-68
2022/04/23 02:17:55;;;;;;;13.40;6.57;;;;;;;;;;5107898;28;20051;-68
2022/04/23 02:20:23;;;;;;;9.37;5.70;;;;;;;;;;5111451;28;20497;-68
2022/04/23 02:22:50;;;;;;;11.27;5.83;;;;;;;;;;5113016;28;20035;-69
2022/04/23 02:25:17;;;;;;;10.47;5.40;;;;;;;;;;5113307;28;20024;-68
2022/04/23 02:27:48;;;;;;;10.10;4.93;;;;;;;;;;5113249;28;20091;-68
2022/04/23 02:30:15;;;;;;;9.20;4.87;;;;;;;;;;5113333;28;20116;-68
2022/04/23 02:32:42;;;;;;;8.47;4.63;;;;;;;;;;5109294;28;20399;-68
2022/04/23 02:35:10;;;;;;;8.77;4.63;;;;;;;;;;5107871;28;20028;-68
2022/04/23 02:37:37;;;;;;;7.57;4.50;;;;;;;;;;5107860;28;20042;-68
2022/04/23 02:40:04;;;;;;;11.43;5.43;;;;;;;;;;5107062;28;20023;-68
2022/04/23 02:42:31;;;;;;;6.37;4.30;;;;;;;;;;5110971;28;20042;-68
2022/04/23 02:45:02;;;;;;;7.40;4.90;;;;;;;;;;5113145;28;20030;-68
2022/04/23 02:48:01;;;;;;;7.17;4.43;;;;;;;;;;5112693;28;20030;-68
2022/04/23 02:50:32;;;;;;;5.90;4.50;;;;;;;;;;5057656;28;20114;-68
2022/04/23 02:52:59;;;;;;;9.33;4.40;;;;;;;;;;5112515;28;20024;-68
2022/04/23 02:55:27;;;;;;;9.63;4.93;;;;;;;;;;5107386;28;20055;-68
2022/04/23 02:57:54;;;;;;;8.13;4.70;;;;;;;;;;5107666;28;20466;-69
2022/04/23 03:00:20;;;;;;;7.67;4.80;;;;;;;;;;5107671;28;20016;-68
2022/04/23 03:02:52;;;;;;;6.37;3.90;;;;;;;;;;5106744;28;20032;-69
2022/04/23 03:05:19;;;;;;;9.20;4.77;;;;;;;;;;5112030;28;20039;-68
2022/04/23 03:07:46;;;;;;;11.10;4.83;;;;;;;;;;5112654;28;20374;-68
2022/04/23 03:10:14;;;;;;;7.70;5.03;;;;;;;;;;5112723;28;20115;-68
2022/04/23 03:12:41;;;;;;;9.57;4.80;;;;;;;;;;5112594;28;20028;-68
2022/04/23 03:15:10;;;;;;;6.87;4.57;;;;;;;;;;5112697;28;20020;-68
2022/04/23 03:17:37;;;;;;;7.37;4.83;;;;;;;;;;5107351;28;20023;-69
2022/04/23 03:20:04;;;;;;;10.90;5.63;;;;;;;;;;5107397;28;20011;-68
2022/04/23 03:22:31;;;;;;;7.83;4.33;;;;;;;;;;5107424;28;20038;-68
2022/04/23 03:24:58;;;;;;;9.70;4.13;;;;;;;;;;5107057;28;20026;-68
2022/04/23 03:27:24;;;;;;;10.00;4.27;;;;;;;;;;5111270;28;20020;-68
2022/04/23 03:29:51;;;;;;;7.77;4.10;;;;;;;;;;5112950;28;20541;-67
2022/04/23 03:32:18;;;;;;;7.77;4.30;;;;;;;;;;5116781;28;20027;-68
2022/04/23 03:34:44;;;;;;;5.27;3.30;;;;;;;;;;5115677;28;20039;-68
2022/04/23 03:37:11;;;;;;;6.10;4.40;;;;;;;;;;5116588;28;20493;-67
2022/04/23 03:39:38;;;;;;;7.87;4.70;;;;;;;;;;5112361;28;20394;-68
2022/04/23 03:42:05;;;;;;;10.63;5.57;;;;;;;;;;5111337;28;20063;-68
2022/04/23 03:44:32;;;;;;;6.57;3.70;;;;;;;;;;5111365;28;20509;-68
2022/04/23 03:46:59;;;;;;;7.30;3.20;;;;;;;;;;5110637;28;20020;-68
2022/04/23 03:49:25;;;;;;;6.83;4.00;;;;;;;;;;5114550;28;20019;-68
2022/04/23 03:51:52;;;;;;;5.97;3.47;;;;;;;;;;5116010;28;20534;-68
2022/04/23 03:54:19;;;;;;;10.90;3.77;;;;;;;;;;5116197;28;20076;-68
2022/04/23 03:56:46;;;;;;;5.90;4.17;;;;;;;;;;5116254;28;20028;-68
2022/04/23 03:59:14;;;;;;;6.80;4.20;;;;;;;;;;5116046;28;20123;-67
2022/04/23 04:01:41;;;;;;;9.30;4.50;;;;;;;;;;5112328;28;20028;-67
2022/04/23 04:04:08;;;;;;;6.87;4.07;;;;;;;;;;5110807;28;20028;-67
2022/04/23 04:06:35;;;;;;;6.33;4.40;;;;;;;;;;5110812;28;20034;-67
2022/04/23 04:09:02;;;;;;;6.53;3.40;;;;;;;;;;5110771;28;20031;-68
2022/04/23 04:12:01;;;;;;;8.23;3.63;;;;;;;;;;5113174;28;20038;-68
2022/04/23 04:14:15;;;;;;;6.77;3.87;;;;;;;;;;5115570;28;20475;-68
2022/04/23 04:16:42;;;;;;;7.87;3.67;;;;;;;;;;5115739;28;20023;-67
2022/04/23 04:19:09;;;;;;;8.57;3.90;;;;;;;;;;5115306;28;20055;-67
2022/04/23 04:21:36;;;;;;;15.80;4.67;;;;;;;;;;5115042;28;20103;-70
2022/04/23 04:24:03;;;;;;;8.13;4.07;;;;;;;;;;5112257;28;20020;-68
2022/04/23 04:26:29;;;;;;;9.47;4.30;;;;;;;;;;5110374;28;20497;-69
2022/04/23 04:28:56;;;;;;;10.07;4.00;;;;;;;;;;5110164;28;20028;-71
2022/04/23 04:34:08;;;;;;;6.90;3.45;;;;;;;;;;5113257;28;20488;-74
2022/04/23 04:36:35;;;;;;;7.87;4.33;;;;;;;;;;5114816;28;20016;-67
2022/04/23 04:39:02;;;;;;;8.47;3.80;;;;;;;;;;5115584;28;20114;-67
2022/04/23 04:41:29;;;;;;;7.13;3.80;;;;;;;;;;5114057;28;20462;-68
2022/04/23 04:43:56;;;;;;;7.10;3.37;;;;;;;;;;5115398;28;20496;-70
2022/04/23 04:46:22;;;;;;;7.17;3.73;;;;;;;;;;5111508;28;20041;-68
2022/04/23 04:48:51;;;;;;;6.17;3.33;;;;;;;;;;5109967;28;20019;-71
2022/04/23 04:51:18;;;;;;;7.17;3.07;;;;;;;;;;5109785;28;20028;-68
2022/04/23 04:53:45;;;;;;;4.97;3.07;;;;;;;;;;5109708;28;20077;-68
2022/04/23 04:56:12;;;;;;;6.50;3.13;;;;;;;;;;5112509;28;20026;-68
2022/04/23 04:58:43;;;;;;;4.83;2.53;;;;;;;;;;5115068;28;20527;-68
2022/04/23 05:01:10;;;;;;;4.40;2.53;;;;;;;;;;5115137;28;20064;-68
2022/04/23 05:03:38;;;;;;;8.40;3.00;;;;;;;;;;5115076;28;20031;-68
2022/04/23 05:06:05;;;;;;;8.93;3.10;;;;;;;;;;5114562;28;20104;-67
2022/04/23 05:08:31;;;;;;;4.77;2.83;;;;;;;;;;5111884;28;20386;-68
2022/04/23 05:10:58;;;;;;;5.93;2.93;;;;;;;;;;5109578;28;20474;-68
2022/04/23 05:13:25;;;;;;;7.10;3.47;;;;;;;;;;5109677;28;20471;-68
2022/04/23 05:15:51;;;;;;;9.93;3.10;;;;;;;;;;5109514;28;20026;-68
2022/04/23 05:18:18;;;;;;;5.53;3.20;;;;;;;;;;5111953;28;20024;-68
2022/04/23 05:20:45;;;;;;;10.33;3.53;;;;;;;;;;5114889;28;20028;-68
2022/04/23 05:23:12;;;;;;;7.90;2.87;;;;;;;;;;5114366;28;20038;-68
2022/04/23 05:25:38;;;;;;;4.60;2.57;;;;;;;;;;5114343;28;20081;-68
2022/04/23 05:28:05;;;;;;;6.17;2.87;;;;;;;;;;5114095;28;20696;-68
2022/04/23 05:30:32;;;;;;;5.27;2.90;;;;;;;;;;5111782;28;20035;-68
2022/04/23 05:32:58;;;;;;;4.20;2.93;;;;;;;;;;5109314;28;20023;-68
2022/04/23 05:35:25;;;;;;;5.37;2.50;;;;;;;;;;5108843;28;20381;-68
2022/04/23 05:37:52;;;;;;;6.47;3.43;;;;;;;;;;5109025;28;20034;-68
2022/04/23 05:40:18;;;;;;;7.53;2.70;;;;;;;;;;5110825;28;20103;-67
2022/04/23 05:42:45;;;;;;;5.53;2.27;;;;;;;;;;5114284;28;20043;-67
2022/04/23 05:45:12;;;;;;;5.37;3.13;;;;;;;;;;5114163;28;20031;-67
2022/04/23 05:47:41;;;;;;;8.17;2.93;;;;;;;;;;5114280;28;20049;-68
2022/04/23 05:50:11;;;;;;;6.67;2.80;;;;;;;;;;5114306;28;20024;-67
2022/04/23 05:52:38;;;;;;;6.63;2.87;;;;;;;;;;5111586;28;20027;-68
2022/04/23 05:55:05;;;;;;;10.07;3.10;;;;;;;;;;5108017;28;20027;-68
2022/04/23 05:57:32;;;;;;;6.27;2.70;;;;;;;;;;5108619;28;20096;-67
2022/04/23 05:59:59;;;;;;;4.77;2.80;;;;;;;;;;5108579;28;20031;-67
2022/04/23 06:02:26;;;;;;;6.10;3.27;;;;;;;;;;5109938;28;20446;-67
2022/04/23 06:04:52;;;;;;;5.70;3.27;;;;;;;;;;5114015;28;20084;-67
2022/04/23 06:07:20;;;;;;;9.20;3.13;;;;;;;;;;5113881;28;20020;-67
2022/04/23 06:09:47;;;;;;;6.93;3.20;;;;;;;;;;5113834;28;20039;-67
2022/04/23 06:12:13;;;;;;;7.20;3.13;;;;;;;;;;5113448;28;20074;-67
2022/04/23 06:14:40;;;;;;;5.43;2.70;;;;;;;;;;5112002;28;20028;-67
2022/04/23 06:17:08;;;;;;;6.90;3.10;;;;;;;;;;5108329;28;20061;-68
2022/04/23 06:19:35;;;;;;;6.03;3.43;;;;;;;;;;5108090;28;20038;-67
2022/04/23 06:22:01;;;;;;;9.73;3.70;;;;;;;;;;5108280;28;20036;-67
2022/04/23 06:24:28;;;;;;;6.93;3.87;;;;;;;;;;5109194;28;20106;-68
2022/04/23 06:26:55;;;;;;;7.20;3.50;;;;;;;;;;5113029;28;20026;-67
2022/04/23 06:29:21;;;;;;;6.03;3.30;;;;;;;;;;5113122;28;20402;-67
2022/04/23 06:31:48;;;;;;;6.20;3.00;;;;;;;;;;5113490;28;20023;-67
2022/04/23 06:34:15;;;;;;;5.37;3.20;;;;;;;;;;5113360;28;20030;-67
2022/04/23 06:36:42;;;;;;;6.50;3.30;;;;;;;;;;5112044;28;20485;-67
2022/04/23 06:39:09;;;;;;;5.40;3.87;;;;;;;;;;5108056;28;20030;-67
2022/04/23 06:41:36;;;;;;;5.07;3.03;;;;;;;;;;5107911;28;20077;-67
2022/04/23 06:44:03;;;;;;;6.73;3.80;;;;;;;;;;5107590;28;20038;-67
2022/04/23 06:46:29;;;;;;;6.00;3.37;;;;;;;;;;5108004;28;20028;-67
2022/04/23 06:48:56;;;;;;;6.20;3.27;;;;;;;;;;5113190;28;20070;-67
2022/04/23 06:51:23;;;;;;;10.73;4.23;;;;;;;;;;5112900;28;20428;-67
2022/04/23 06:53:50;;;;;;;5.63;3.13;;;;;;;;;;5112921;28;20051;-67
2022/04/23 06:56:16;;;;;;;7.43;3.23;;;;;;;;;;5112700;28;20019;-67
2022/04/23 06:58:46;;;;;;;5.27;3.10;;;;;;;;;;5112330;28;20023;-67
2022/04/23 07:01:12;;;;;;;6.43;4.03;;;;;;;;;;5106997;28;20020;-67
2022/04/23 07:03:39;;;;;;;9.80;3.47;;;;;;;;;;5107533;28;20370;-67
2022/04/23 07:06:06;;;;;;;5.60;3.47;;;;;;;;;;5106815;28;20024;-67
2022/04/23 07:08:33;;;;;;;5.77;3.17;;;;;;;;;;5107442;28;20024;-67
2022/04/23 07:10:59;;;;;;;6.10;3.63;;;;;;;;;;5112641;28;20099;-67
2022/04/23 07:13:26;;;;;;;5.30;3.23;;;;;;;;;;5112780;28;20085;-67
2022/04/23 07:15:53;;;;;;;7.70;3.60;;;;;;;;;;5112627;28;20069;-67
2022/04/23 07:18:19;;;;;;;9.53;3.93;;;;;;;;;;5112373;28;20024;-67
2022/04/23 07:20:46;;;;;;;8.33;3.90;;;;;;;;;;5112677;28;20028;-67
2022/04/23 07:25:58;;;;;;;6.22;3.70;;;;;;;;;;5107535;28;20054;-67
2022/04/23 07:28:25;;;;;;;7.00;4.40;;;;;;;;;;5107095;28;20048;-67
2022/04/23 07:30:52;;;;;;;9.37;4.33;;;;;;;;;;5106668;28;20080;-67
2022/04/23 07:38:59;;;;;;;5.93;3.78;;;;;;;;;;5112725;28;20078;-67
2022/04/23 07:41:27;;;;;;;5.97;3.83;;;;;;;;;;5112509;28;20107;-67
2022/04/23 07:43:54;;;;;;;7.33;3.47;;;;;;;;;;5110395;28;20466;-67
2022/04/23 07:46:21;;;;;;;6.73;3.70;;;;;;;;;;5106871;28;20028;-67
2022/04/23 07:48:48;;;;;;;7.40;4.50;;;;;;;;;;5086776;28;20024;-67
2022/04/23 07:51:16;;;;;;;8.40;4.27;;;;;;;;;;5086566;28;20555;-67
2022/04/23 07:53:42;;;;;;;10.63;4.70;;;;;;;;;;5087974;28;20020;-67
2022/04/23 07:56:09;;;;;;;4.63;3.30;;;;;;;;;;5092102;28;20032;-67
2022/04/23 07:58:36;;;;;;;7.93;3.93;;;;;;;;;;5092140;28;20482;-67
2022/04/23 08:01:03;;;;;;;8.30;5.10;;;;;;;;;;5092054;28;20024;-67
2022/04/23 08:03:30;;;;;;;6.73;4.67;;;;;;;;;;5091722;28;20055;-67
2022/04/23 08:05:57;;;;;;;10.40;5.30;;;;;;;;;;5090178;28;20455;-67
2022/04/23 08:08:24;;;;;;;5.37;4.07;;;;;;;;;;5086124;28;20459;-67
2022/04/23 08:10:50;;;;;;;6.83;4.20;;;;;;;;;;5086449;28;20138;-67
2022/04/23 08:13:17;;;;;;;6.67;3.50;;;;;;;;;;5086359;28;20035;-67
2022/04/23 08:15:44;;;;;;;8.43;4.33;;;;;;;;;;5087718;28;20032;-67
2022/04/23 08:18:11;;;;;;;7.53;4.27;;;;;;;;;;5110143;28;20031;-66
2022/04/23 08:20:41;;;;;;;10.17;4.47;;;;;;;;;;5115444;28;20027;-66
2022/04/23 08:23:08;;;;;;;6.90;3.93;;;;;;;;;;5115862;28;20427;-67
2022/04/23 08:25:35;;;;;;;8.07;4.30;;;;;;;;;;5115753;28;20027;-67
2022/04/23 08:30:47;;;;;;;12.80;5.07;;;;;;;;;;5110573;28;20096;-67
2022/04/23 08:33:14;;;;;;;9.17;4.40;;;;;;;;;;5109934;28;20191;-66
2022/04/23 08:35:41;;;;;;;8.40;4.73;;;;;;;;;;5109805;28;20020;-67
2022/04/23 08:38:08;;;;;;;6.80;4.17;;;;;;;;;;5111461;28;20028;-66
2022/04/23 08:40:36;;;;;;;9.60;4.33;;;;;;;;;;5115769;28;20032;-66
2022/04/23 08:43:03;;;;;;;7.27;4.73;;;;;;;;;;5115731;28;20379;-66
2022/04/23 08:45:32;;;;;;;9.90;4.43;;;;;;;;;;5115622;28;20019;-66
2022/04/23 08:48:00;;;;;;;6.37;4.10;;;;;;;;;;5114726;28;20030;-67
2022/04/23 08:50:27;;;;;;;6.70;4.33;;;;;;;;;;5113465;28;20020;-66
2022/04/23 08:52:55;;;;;;;9.73;4.50;;;;;;;;;;5109670;28;20028;-66
2022/04/23 08:55:22;;;;;;;7.73;3.63;;;;;;;;;;5109921;28;20559;-66
2022/04/23 08:57:49;;;;;;;8.80;4.00;;;;;;;;;;5110074;28;20016;-67
2022/04/23 09:00:16;;;;;;;7.47;4.23;;;;;;;;;;5110774;28;20020;-66
2022/04/23 09:02:43;;;;;;;8.20;4.30;;;;;;;;;;5114842;28;20390;-66
2022/04/23 09:05:14;;;;;;;5.87;3.87;;;;;;;;;;5114880;28;20028;-66
2022/04/23 09:07:41;;;;;;;7.43;4.37;;;;;;;;;;5115099;28;20015;-67
2022/04/23 09:10:08;;;;;;;7.37;3.90;;;;;;;;;;5115025;28;20525;-66
2022/04/23 09:12:53;;;;;;;6.83;4.03;;;;;;;;;;5113701;28;20020;-66
2022/04/23 09:23:41;;;;;;;7.30;3.78;;;;;;;;;;5112517;28;20046;-66
2022/04/23 09:26:17;;;;;;;7.37;3.87;;;;;;;;;;5114861;28;20016;-66
2022/04/23 09:28:48;;;;;;;8.07;3.57;;;;;;;;;;5114017;27;20019;-66
2022/04/23 09:31:18;;;;;;;8.80;3.60;;;;;;;;;;5114371;28;20035;-66
2022/04/23 09:33:46;;;;;;;5.77;3.50;;;;;;;;;;5113802;28;20086;-66
2022/04/23 09:36:13;;;;;;;6.47;4.03;;;;;;;;;;5110233;28;20027;-66
2022/04/23 09:38:40;;;;;;;9.63;4.00;;;;;;;;;;5109024;28;20252;-67
2022/04/23 09:41:15;;;;;;;6.50;3.60;;;;;;;;;;5090919;28;20660;-66
2022/04/23 09:43:45;;;;;;;5.67;3.13;;;;;;;;;;5108792;28;20038;-65
2022/04/23 09:46:12;;;;;;;5.87;3.43;;;;;;;;;;5112344;28;20248;-66
2022/04/23 09:48:40;;;;;;;9.07;4.30;;;;;;;;;;5114410;28;20317;-65
2022/04/23 09:51:20;;;;;;;7.60;4.30;;;;;;;;;;5114334;28;20260;-66
2022/04/23 09:53:50;;;;;;;6.77;4.03;;;;;;;;;;5114244;28;20291;-65
2022/04/23 09:56:17;;;;;;;6.37;4.43;;;;;;;;;;5114059;28;20263;-66
2022/04/23 09:58:44;;;;;;;8.10;4.23;;;;;;;;;;5108498;28;20256;-66
2022/04/23 10:01:11;;;;;;;6.47;4.23;;;;;;;;;;5108510;28;20256;-65
2022/04/23 10:03:38;;;;;;;6.90;3.70;;;;;;;;;;5108206;28;20761;-65
2022/04/23 10:06:07;;;;;;;7.90;3.93;;;;;;;;;;5108497;28;20256;-66
2022/04/23 10:08:34;;;;;;;12.67;3.93;;;;;;;;;;5112847;28;20738;-65
2022/04/23 10:11:06;;;;;;;6.50;3.47;;;;;;;;;;5113940;28;20260;-64
2022/04/23 10:13:34;;;;;;;7.20;3.90;;;;;;;;;;5113478;28;20244;-65
2022/04/23 10:16:03;;;;;;;13.90;5.60;;;;;;;;;;5113650;28;20280;-64
2022/04/23 10:18:32;;;;;;;7.10;3.97;;;;;;;;;;5113597;28;20722;-65
2022/04/23 10:21:02;;;;;;;10.50;4.90;;;;;;;;;;5108665;28;20256;-65
2022/04/23 10:23:48;;;;;;;7.93;4.80;;;;;;;;;;5108290;28;20280;-65
2022/04/23 10:26:29;;;;;;;10.45;4.07;;;;;;;;;;5108273;28;20363;-65
2022/04/23 10:28:56;;;;;;;7.57;4.13;;;;;;;;;;5108141;28;20434;-65
2022/04/23 10:31:23;;;;;;;11.00;3.70;;;;;;;;;;5113232;28;20259;-65
2022/04/23 10:33:52;;;;;;;9.27;4.07;;;;;;;;;;5113131;28;20267;-65
2022/04/23 10:36:19;;;;;;;7.87;4.20;;;;;;;;;;5112940;28;20244;-66
2022/04/23 10:38:51;;;;;;;6.87;4.00;;;;;;;;;;5113099;28;20274;-66
2022/04/23 10:41:19;;;;;;;6.33;4.17;;;;;;;;;;5112083;28;20327;-66
2022/04/23 10:43:49;;;;;;;7.67;4.70;;;;;;;;;;5107707;28;20756;-66
2022/04/23 10:46:35;;;;;;;8.07;4.50;;;;;;;;;;5107883;28;20264;-66
2022/04/23 10:49:33;;;;;;;7.03;4.40;;;;;;;;;;5107735;28;20697;-65
2022/04/23 10:52:00;;;;;;;7.30;3.70;;;;;;;;;;5054029;28;20309;-65
2022/04/23 10:54:47;;;;;;;6.53;3.90;;;;;;;;;;5112550;28;20256;-65
2022/04/23 10:57:14;;;;;;;8.97;4.03;;;;;;;;;;5113130;28;20259;-66
2022/04/23 10:59:43;;;;;;;6.43;3.53;;;;;;;;;;5112989;28;20327;-66
2022/04/23 11:02:14;;;;;;;8.27;3.90;;;;;;;;;;5112659;28;20279;-66
2022/04/23 11:13:27;;;;;;;7.87;4.10;;;;;;;;;;5107464;28;20607;-65
2022/04/23 11:16:16;;;;;;;7.30;3.20;;;;;;;;;;5112721;28;20722;-65
2022/04/23 11:18:44;;;;;;;4.73;3.23;;;;;;;;;;5112702;28;20606;-65
2022/04/23 11:21:24;;;;;;;6.73;3.40;;;;;;;;;;5112915;28;20259;-65
2022/04/23 11:23:51;;;;;;;4.60;3.07;;;;;;;;;;5112667;28;20319;-64
2022/04/23 11:26:22;;;;;;;5.40;3.10;;;;;;;;;;5110401;28;20276;-65
2022/04/23 11:28:57;;;;;;;7.27;3.17;;;;;;;;;;5107266;28;20260;-65
2022/04/23 11:31:24;;;;;;;8.30;4.20;;;;;;;;;;5107039;28;20296;-64
2022/04/23 11:33:57;;;;;;;9.10;3.50;;;;;;;;;;5106815;28;20267;-64
2022/04/23 11:36:28;;;;;;;8.07;3.77;;;;;;;;;;5108826;28;20798;-65
2022/04/23 11:38:55;;;;;;;11.13;3.53;;;;;;;;;;5112552;28;20256;-65
2022/04/23 11:41:29;;;;;;;5.37;3.17;;;;;;;;;;5112521;28;20264;-65
2022/04/23 11:43:55;;;;;;;4.90;3.03;;;;;;;;;;5112289;28;20284;-64
2022/04/23 11:46:22;;;;;;;4.60;3.30;;;;;;;;;;5112574;28;20284;-64
2022/04/23 11:48:51;;;;;;;4.87;2.90;;;;;;;;;;5110038;28;20292;-65
2022/04/23 11:51:21;;;;;;;9.07;3.23;;;;;;;;;;5108219;28;20275;-65
2022/04/23 11:53:56;;;;;;;4.80;2.90;;;;;;;;;;5111030;28;20351;-65
2022/04/23 11:56:24;;;;;;;5.40;2.90;;;;;;;;;;5111134;28;20260;-65
2022/04/23 11:58:54;;;;;;;4.93;2.80;;;;;;;;;;5113427;28;20248;-64
2022/04/23 12:01:22;;;;;;;5.37;2.93;;;;;;;;;;5116090;28;20256;-65
2022/04/23 12:03:50;;;;;;;6.57;3.37;;;;;;;;;;5115796;28;20288;-65
2022/04/23 12:06:16;;;;;;;7.77;3.30;;;;;;;;;;5116132;28;20301;-65
2022/04/23 12:08:43;;;;;;;7.77;4.10;;;;;;;;;;5116305;28;20256;-65
2022/04/23 12:11:22;;;;;;;6.63;3.10;;;;;;;;;;5113373;28;20260;-66
2022/04/23 12:13:49;;;;;;;6.20;3.40;;;;;;;;;;5110467;28;20293;-65
2022/04/23 12:16:35;;;;;;;7.20;4.07;;;;;;;;;;5110547;28;20256;-64
2022/04/23 12:19:02;;;;;;;;;;;;;;;;;;5110959;28;20248;-66
2022/04/23 12:21:29;;;;;;;9.07;3.60;;;;;;;;;;5113724;28;19904;-65
2022/04/23 12:23:56;;;;;;;9.57;3.40;;;;;;;;;;5115848;28;20359;-64
2022/04/23 12:26:24;;;;;;;5.67;3.20;;;;;;;;;;5114937;28;20260;-65
2022/04/23 12:42:26;;;;;;;12.35;5.32;;;;;;;;;;5110623;28;20096;-65
2022/04/23 12:44:53;;;;;;;8.03;4.20;;;;;;;;;;5115681;28;20020;-65
2022/04/23 12:47:35;;;;;;;8.80;4.23;;;;;;;;;;5115573;28;20259;-65
2022/04/23 12:50:07;;;;;;;9.03;4.30;;;;;;;;;;5115518;28;20267;-65
2022/04/23 12:52:46;;;;;;;7.70;4.60;;;;;;;;;;5115532;28;20341;-64
2022/04/23 12:55:26;;;;;;;7.43;3.77;;;;;;;;;;5112912;28;20268;-65
2022/04/23 12:57:53;;;;;;;8.07;4.73;;;;;;;;;;5109885;28;20377;-65
2022/04/23 13:00:24;;;;;;;11.37;5.70;;;;;;;;;;5109496;28;20809;-65
2022/04/23 13:03:10;;;;;;;12.97;5.50;;;;;;;;;;5108810;28;20288;-65
2022/04/23 13:05:37;;;;;;;11.30;5.10;;;;;;;;;;5112342;28;20256;-64
2022/04/23 13:10:49;;;;;;;10.07;5.43;;;;;;;;;;5115105;28;20328;-65
2022/04/23 13:13:15;;;;;;;15.70;5.67;;;;;;;;;;5115123;28;20020;-65
2022/04/23 13:15:42;;;;;;;9.97;5.20;;;;;;;;;;5114956;28;20614;-66
2022/04/23 13:18:09;;;;;;;32.50;8.33;;;;;;;;;;5111305;28;20051;-65
2022/04/23 13:20:36;;;;;;;14.07;5.80;;;;;;;;;;5109556;28;20019;-65
2022/04/23 13:23:03;;;;;;;10.30;5.17;;;;;;;;;;5108936;28;20043;-65
2022/04/23 13:25:29;;;;;;;10.20;5.80;;;;;;;;;;5108877;28;20023;-65
2022/04/23 13:27:56;;;;;;;6.90;4.53;;;;;;;;;;5112027;28;20024;-66
2022/04/23 13:30:23;;;;;;;11.60;5.33;;;;;;;;;;5114580;28;20173;-66
2022/04/23 13:32:49;;;;;;;10.10;4.57;;;;;;;;;;5114480;28;20024;-66
2022/04/23 13:35:16;;;;;;;11.90;5.20;;;;;;;;;;5114585;28;20023;-66
2022/04/23 13:37:43;;;;;;;10.70;5.40;;;;;;;;;;5114028;28;20016;-66
2022/04/23 13:40:11;;;;;;;9.67;5.27;;;;;;;;;;5111862;28;20028;-66
2022/04/23 13:42:39;;;;;;;8.83;5.53;;;;;;;;;;5108269;28;20109;-65
2022/04/23 13:45:06;;;;;;;9.40;4.87;;;;;;;;;;5108678;28;20063;-66
2022/04/23 13:47:36;;;;;;;9.63;5.13;;;;;;;;;;5109035;28;20019;-66
2022/04/23 13:50:03;;;;;;;16.73;6.27;;;;;;;;;;5111454;28;20485;-65
2022/04/23 13:52:30;;;;;;;14.17;6.30;;;;;;;;;;5113773;28;20019;-67
2022/04/23 13:54:56;;;;;;;13.97;7.30;;;;;;;;;;5114278;28;20039;-65
2022/04/23 13:57:24;;;;;;;14.10;6.63;;;;;;;;;;5114146;28;20103;-66
2022/04/23 13:59:51;;;;;;;15.00;8.40;;;;;;;;;;5113992;28;20049;-66
2022/04/23 14:10:33;;;;;;;;;;;;;;;;;;5108951;28;20030;-65
2022/04/23 14:12:59;;;;;;;13.63;5.37;;;;;;;;;;5111997;28;19972;-66
2022/04/23 14:15:26;;;;;;;11.23;5.00;;;;;;;;;;5113879;28;20035;-66
2022/04/23 14:17:53;;;;;;;7.93;3.83;;;;;;;;;;5113744;28;20084;-66
2022/04/23 14:20:20;;;;;;;8.07;4.73;;;;;;;;;;5113648;28;20012;-67
2022/04/23 14:22:46;;;;;;;8.53;4.60;;;;;;;;;;5113573;28;20028;-67
2022/04/23 14:25:13;;;;;;;7.13;3.77;;;;;;;;;;5109032;28;20034;-66
2022/04/23 14:27:40;;;;;;;9.53;4.57;;;;;;;;;;5107846;28;20089;-67
2022/04/23 14:30:08;;;;;;;6.20;3.63;;;;;;;;;;5108127;28;20032;-67
2022/04/23 14:32:35;;;;;;;7.10;4.33;;;;;;;;;;5089483;28;20390;-67
2022/04/23 14:35:02;;;;;;;10.23;4.77;;;;;;;;;;5111617;28;20111;-67
2022/04/23 14:37:28;;;;;;;6.20;3.57;;;;;;;;;;5113333;28;20045;-67
2022/04/23 14:39:55;;;;;;;8.50;3.67;;;;;;;;;;5113193;28;20016;-66
2022/04/23 14:42:22;;;;;;;8.93;4.20;;;;;;;;;;5113143;28;20024;-67
2022/04/23 14:44:49;;;;;;;11.23;4.17;;;;;;;;;;5112775;28;20351;-68
2022/04/23 14:47:16;;;;;;;7.80;3.90;;;;;;;;;;5109107;28;20022;-68
2022/04/23 14:49:42;;;;;;;7.53;3.57;;;;;;;;;;5107847;28;20030;-67
2022/04/23 14:54:53;;;;;;;;;;;;;;;;;;5107966;28;20730;-66
2022/04/23 14:57:20;;;;;;;12.97;4.73;;;;;;;;;;5111047;28;19992;-67
2022/04/23 14:59:47;;;;;;;11.47;5.47;;;;;;;;;;5112963;28;20089;-67
2022/04/23 15:02:13;;;;;;;13.37;5.70;;;;;;;;;;5112840;28;20023;-66
2022/04/23 15:04:40;;;;;;;11.67;5.10;;;;;;;;;;5112742;28;20034;-67
2022/04/23 15:07:07;;;;;;;11.97;5.03;;;;;;;;;;5113026;28;20020;-67
2022/04/23 15:09:34;;;;;;;14.23;5.87;;;;;;;;;;5108317;28;20107;-67
2022/04/23 15:12:00;;;;;;;13.07;5.33;;;;;;;;;;5107536;28;20023;-67
2022/04/23 15:14:28;;;;;;;12.27;5.23;;;;;;;;;;5107023;28;20023;-67
2022/04/23 15:16:55;;;;;;;13.27;4.97;;;;;;;;;;5107162;28;20522;-67
2022/04/23 15:19:22;;;;;;;10.07;5.20;;;;;;;;;;5110830;28;20478;-67
2022/04/23 15:21:48;;;;;;;10.77;4.90;;;;;;;;;;5112773;28;20031;-67
2022/04/23 15:24:15;;;;;;;8.33;4.63;;;;;;;;;;5112600;28;20066;-67
2022/04/23 15:26:43;;;;;;;8.40;4.90;;;;;;;;;;5111905;28;20020;-67
2022/04/23 15:29:09;;;;;;;13.67;5.17;;;;;;;;;;5111740;28;20378;-67
2022/04/23 15:31:40;;;;;;;9.50;5.03;;;;;;;;;;5108558;28;20787;-67
2022/04/23 15:34:07;;;;;;;10.43;5.63;;;;;;;;;;5107215;28;20031;-67
2022/04/23 15:36:34;;;;;;;6.40;4.70;;;;;;;;;;5107204;28;20023;-67
2022/04/23 15:39:00;;;;;;;9.20;4.40;;;;;;;;;;5107052;28;20030;-67
2022/04/23 15:41:28;;;;;;;7.20;4.83;;;;;;;;;;5110268;28;20374;-67
2022/04/23 15:43:54;;;;;;;6.30;4.20;;;;;;;;;;5111358;28;20114;-67